createdAt,value
2018-09-22T00:01:07.276Z,95531.54
2018-09-22T00:03:36.500Z,95544.40
2018-09-22T00:06:05.762Z,95545.83
2018-09-22T00:08:35.275Z,95548.65
2018-09-22T00:11:04.523Z,95553.91
2018-09-22T00:13:33.788Z,95542.71
2018-09-22T00:16:04.260Z,95556.73
2018-09-22T00:18:33.529Z,95558.88
2018-09-22T00:21:02.815Z,95570.42
2018-09-22T00:23:32.122Z,95568.91
2018-09-22T00:26:01.355Z,95566.94
2018-09-22T00:28:30.594Z,95564.16
2018-09-22T00:30:59.829Z,95555.91
2018-09-22T00:33:29.118Z,95554.89
2018-09-22T00:35:58.349Z,95547.33
2018-09-22T00:38:27.646Z,95555.11
2018-09-22T00:40:56.876Z,95564.50
2018-09-22T00:43:26.122Z,95566.48
2018-09-22T00:45:55.357Z,95577.02
2018-09-22T00:48:24.623Z,95573.38
2018-09-22T00:50:53.851Z,95580.30
2018-09-22T00:53:23.099Z,95575.69
2018-09-22T00:55:52.366Z,95567.10
2018-09-22T00:58:21.628Z,95570.38
2018-09-22T01:00:50.966Z,95578.61
2018-09-22T01:03:20.215Z,95574.97
2018-09-22T01:05:49.470Z,95580.41
2018-09-22T01:08:18.723Z,95588.17
2018-09-22T01:10:48.025Z,95590.50
2018-09-22T01:13:17.242Z,95590.60
2018-09-22T01:15:46.502Z,95580.26
2018-09-22T01:18:15.735Z,95571.05
2018-09-22T01:20:44.991Z,95573.98
2018-09-22T01:23:14.247Z,95585.20
2018-09-22T01:25:43.584Z,95596.71
2018-09-22T01:28:12.846Z,95595.75
2018-09-22T01:30:42.194Z,95595.41
2018-09-22T01:33:11.714Z,95594.27
2018-09-22T01:35:40.979Z,95599.86
2018-09-22T01:38:10.291Z,95595.58
2018-09-22T01:40:39.526Z,95602.30
2018-09-22T01:43:09.072Z,95599.04
2018-09-22T01:45:38.311Z,95603.95
2018-09-22T01:48:07.533Z,95610.35
2018-09-22T01:50:36.768Z,95612.05
2018-09-22T01:53:06.042Z,95616.77
2018-09-22T01:55:35.286Z,95605.44
2018-09-22T01:58:04.506Z,95603.78
2018-09-22T02:00:33.715Z,95609.86
2018-09-22T02:03:02.961Z,95609.36
2018-09-22T02:05:32.183Z,95604.44
2018-09-22T02:08:01.434Z,95616.61
2018-09-22T02:10:30.673Z,95623.50
2018-09-22T02:12:59.899Z,95616.59
2018-09-22T02:15:29.143Z,95627.94
2018-09-22T02:17:58.589Z,95632.23
2018-09-22T02:20:27.806Z,95638.16
2018-09-22T02:22:57.043Z,95628.59
2018-09-22T02:25:26.498Z,95624.34
2018-09-22T02:27:55.771Z,95642.41
2018-09-22T02:30:24.986Z,95639.94
2018-09-22T02:32:54.459Z,95646.02
2018-09-22T02:35:23.671Z,95650.61
2018-09-22T02:37:52.894Z,95648.98
2018-09-22T02:40:22.141Z,95633.20
2018-09-22T02:42:51.392Z,95652.43
2018-09-22T02:45:20.670Z,95657.85
2018-09-22T02:47:49.947Z,95662.63
2018-09-22T02:50:19.174Z,95665.91
2018-09-22T02:52:48.395Z,95661.80
2018-09-22T02:55:17.631Z,95662.14
2018-09-22T02:57:46.885Z,95660.48
2018-09-22T03:00:16.138Z,95661.11
2018-09-22T03:02:45.387Z,95662.13
2018-09-22T03:05:14.652Z,95664.12
2018-09-22T03:07:43.859Z,95656.20
2018-09-22T03:10:13.118Z,95656.03
2018-09-22T03:12:42.336Z,95652.22
2018-09-22T03:15:11.588Z,95645.78
2018-09-22T03:17:40.826Z,95645.46
2018-09-22T03:20:10.108Z,95661.88
2018-09-22T03:22:39.339Z,95650.86
2018-09-22T03:25:08.678Z,95634.16
2018-09-22T03:27:37.866Z,95640.22
2018-09-22T03:30:07.096Z,95646.14
2018-09-22T03:32:36.351Z,95647.61
2018-09-22T03:35:05.585Z,95649.37
2018-09-22T03:37:34.799Z,95644.33
2018-09-22T03:40:04.106Z,95654.67
2018-09-22T03:42:33.378Z,95655.35
2018-09-22T03:45:02.629Z,95680.64
2018-09-22T03:47:31.877Z,95677.67
2018-09-22T03:50:01.115Z,95679.77
2018-09-22T03:52:30.337Z,95686.87
2018-09-22T03:54:59.542Z,95690.64
2018-09-22T03:57:28.814Z,95680.48
2018-09-22T03:59:58.031Z,95675.91
2018-09-22T04:02:27.262Z,95664.58
2018-09-22T04:04:56.511Z,95660.78
2018-09-22T04:07:25.731Z,95682.09
2018-09-22T04:09:54.962Z,95701.72
2018-09-22T04:12:24.351Z,95683.65
2018-09-22T04:19:51.623Z,95673.88
2018-09-22T04:22:20.883Z,95662.05
2018-09-22T04:24:50.102Z,95659.59
2018-09-22T04:27:19.351Z,95668.62
2018-09-22T04:29:48.638Z,95670.91
2018-09-22T04:32:17.883Z,95667.31
2018-09-22T04:34:47.139Z,95670.73
2018-09-22T04:37:17.590Z,95668.97
2018-09-22T04:39:46.822Z,95661.59
2018-09-22T04:42:16.066Z,95696.09
2018-09-22T04:44:45.325Z,95692.95
2018-09-22T04:47:14.550Z,95674.88
2018-09-22T04:49:43.787Z,95677.61
2018-09-22T04:52:13.003Z,95673.88
2018-09-22T04:54:42.242Z,95678.80
2018-09-22T04:57:11.492Z,95675.89
2018-09-22T04:59:40.718Z,95685.75
2018-09-22T05:02:10.203Z,95684.02
2018-09-22T05:04:39.603Z,95689.45
2018-09-22T05:07:09.074Z,95690.44
2018-09-22T05:09:38.353Z,95682.65
2018-09-22T05:12:07.566Z,95697.38
2018-09-22T05:14:36.839Z,95701.80
2018-09-22T05:17:06.173Z,95701.60
2018-09-22T05:19:35.331Z,95702.77
2018-09-22T05:22:04.592Z,95710.17
2018-09-22T05:24:33.827Z,95711.83
2018-09-22T05:27:03.083Z,95710.48
2018-09-22T05:29:32.300Z,95705.00
2018-09-22T05:32:01.523Z,95705.62
2018-09-22T05:34:30.822Z,95708.63
2018-09-22T05:37:00.051Z,95702.43
2018-09-22T05:39:29.297Z,95691.59
2018-09-22T05:41:58.668Z,95697.05
2018-09-22T05:44:27.872Z,95691.30
2018-09-22T05:46:57.111Z,95693.94
2018-09-22T05:49:26.369Z,95690.45
2018-09-22T05:51:55.578Z,95681.05
2018-09-22T05:54:24.822Z,95677.23
2018-09-22T05:56:54.595Z,95688.70
2018-09-22T05:59:23.787Z,95699.04
2018-09-22T06:01:53.015Z,95707.60
2018-09-22T06:04:22.239Z,95705.00
2018-09-22T06:06:51.734Z,95689.92
2018-09-22T06:09:20.970Z,95701.80
2018-09-22T06:11:50.182Z,95703.44
2018-09-22T06:14:19.462Z,95708.41
2018-09-22T06:16:48.713Z,95714.30
2018-09-22T06:19:17.923Z,95707.09
2018-09-22T06:21:47.162Z,95698.44
2018-09-22T06:24:16.438Z,95692.34
2018-09-22T06:26:45.659Z,95698.78
2018-09-22T06:29:14.923Z,95702.30
2018-09-22T06:31:44.298Z,95708.20
2018-09-22T06:34:13.519Z,95704.58
2018-09-22T06:36:42.751Z,95710.95
2018-09-22T06:39:12.542Z,95710.72
2018-09-22T06:41:41.782Z,95714.42
2018-09-22T06:44:11.287Z,95708.36
2018-09-22T06:46:40.507Z,95704.48
2018-09-22T06:49:09.747Z,95699.63
2018-09-22T06:51:38.987Z,95694.07
2018-09-22T06:54:08.227Z,95701.39
2018-09-22T06:56:37.435Z,95705.78
2018-09-22T06:59:06.663Z,95701.80
2018-09-22T07:01:35.896Z,95708.11
2018-09-22T07:04:05.139Z,95707.12
2018-09-22T07:06:34.363Z,95697.12
2018-09-22T07:09:03.672Z,95697.41
2018-09-22T07:11:32.916Z,95707.49
2018-09-22T07:14:03.499Z,95708.52
2018-09-22T07:16:32.707Z,95714.94
2018-09-22T07:19:01.942Z,95717.67
2018-09-22T07:21:36.414Z,95716.34
2018-09-22T07:24:05.670Z,95707.23
2018-09-22T07:26:34.931Z,95708.48
2018-09-22T07:29:04.171Z,95710.47
2018-09-22T07:31:33.401Z,95711.79
2018-09-22T07:34:02.638Z,95711.28
2018-09-22T07:36:31.951Z,95705.11
2018-09-22T07:39:01.163Z,95719.86
2018-09-22T07:41:30.446Z,95730.13
2018-09-22T07:43:59.706Z,95726.47
2018-09-22T07:46:28.967Z,95719.03
2018-09-22T07:48:58.218Z,95718.21
2018-09-22T07:51:27.449Z,95720.09
2018-09-22T07:53:56.667Z,95723.59
2018-09-22T07:56:25.896Z,95722.21
2018-09-22T07:58:55.302Z,95729.44
2018-09-22T08:01:25.062Z,95734.27
2018-09-22T08:03:54.388Z,95737.64
2018-09-22T08:06:23.865Z,95737.79
2018-09-22T08:08:53.506Z,95733.70
2018-09-22T08:11:22.861Z,95731.80
2018-09-22T08:13:52.083Z,95722.68
2018-09-22T08:16:21.370Z,95724.47
2018-09-22T08:18:50.731Z,95731.91
2018-09-22T08:21:19.947Z,95737.67
2018-09-22T08:23:49.188Z,95751.72
2018-09-22T08:26:18.444Z,95749.16
2018-09-22T08:28:47.684Z,95754.39
2018-09-22T08:31:16.922Z,95750.51
2018-09-22T08:33:46.130Z,95757.65
2018-09-22T08:36:15.510Z,95746.80
2018-09-22T08:38:44.575Z,95746.17
2018-09-22T08:41:13.806Z,95744.48
2018-09-22T08:43:43.068Z,95729.93
2018-09-22T08:46:12.311Z,95731.16
2018-09-22T08:48:41.586Z,95735.67
2018-09-22T08:51:10.852Z,95732.94
2018-09-22T08:53:40.066Z,95741.31
2018-09-22T08:56:09.294Z,95737.73
2018-09-22T08:58:38.646Z,95738.38
2018-09-22T09:01:07.855Z,95734.91
2018-09-22T09:03:37.086Z,95739.13
2018-09-22T09:06:06.334Z,95738.58
2018-09-22T09:08:35.589Z,95732.63
2018-09-22T09:11:04.802Z,95736.02
2018-09-22T09:13:34.110Z,95728.02
2018-09-22T09:16:04.547Z,95719.70
2018-09-22T09:18:33.850Z,95717.33
2018-09-22T09:21:03.090Z,95714.76
2018-09-22T09:23:32.313Z,95718.73
2018-09-22T09:26:01.570Z,95712.03
2018-09-22T09:28:30.863Z,95709.82
2018-09-22T09:31:00.114Z,95705.25
2018-09-22T09:33:29.562Z,95693.23
2018-09-22T09:35:58.778Z,95697.16
2018-09-22T09:38:28.007Z,95687.23
2018-09-22T09:40:57.372Z,95693.31
2018-09-22T09:43:26.776Z,95678.55
2018-09-22T09:45:55.843Z,95681.59
2018-09-22T09:48:25.054Z,95683.27
2018-09-22T09:50:54.295Z,95691.30
2018-09-22T09:53:23.543Z,95689.19
2018-09-22T09:55:52.774Z,95685.00
2018-09-22T09:58:22.079Z,95665.23
2018-09-22T10:00:51.306Z,95672.28
2018-09-22T10:03:20.643Z,95675.45
2018-09-22T10:05:49.889Z,95668.38
2018-09-22T10:08:19.126Z,95660.09
2018-09-22T10:10:48.342Z,95662.25
2018-09-22T10:13:17.565Z,95667.82
2018-09-22T10:15:46.827Z,95674.08
2018-09-22T10:18:16.055Z,95674.67
2018-09-22T10:20:45.290Z,95673.27
2018-09-22T10:23:14.880Z,95678.18
2018-09-22T10:25:44.110Z,95667.84
2018-09-22T10:28:13.335Z,95679.37
2018-09-22T10:30:42.678Z,95674.78
2018-09-22T10:33:11.891Z,95677.16
2018-09-22T10:35:41.115Z,95679.96
2018-09-22T10:38:10.334Z,95674.80
2018-09-22T10:40:39.564Z,95671.37
2018-09-22T10:43:09.013Z,95674.03
2018-09-22T10:45:38.258Z,95673.72
2018-09-22T10:48:07.465Z,95663.74
2018-09-22T10:50:36.719Z,95655.10
2018-09-22T10:53:05.997Z,95645.84
2018-09-22T10:55:35.175Z,95648.81
2018-09-22T10:58:04.418Z,95655.98
2018-09-22T11:00:33.638Z,95654.19
2018-09-22T11:03:02.887Z,95646.27
2018-09-22T11:05:32.142Z,95640.01
2018-09-22T11:08:01.543Z,95636.48
2018-09-22T11:10:30.758Z,95626.14
2018-09-22T11:13:00.043Z,95622.31
2018-09-22T11:15:30.754Z,95628.58
2018-09-22T11:17:59.967Z,95629.19
2018-09-22T11:20:29.207Z,95626.77
2018-09-22T11:22:58.461Z,95622.06
2018-09-22T11:25:27.693Z,95631.72
2018-09-22T11:27:56.910Z,95613.44
2018-09-22T11:30:26.143Z,95609.66
2018-09-22T11:32:55.376Z,95606.48
2018-09-22T11:35:24.815Z,95599.80
2018-09-22T11:37:54.043Z,95590.89
2018-09-22T11:40:23.259Z,95593.81
2018-09-22T11:42:52.499Z,95586.63
2018-09-22T11:45:21.727Z,95576.12
2018-09-22T11:47:50.940Z,95583.30
2018-09-22T11:50:20.186Z,95579.77
2018-09-22T11:52:49.406Z,95569.80
2018-09-22T11:55:18.645Z,95584.29
2018-09-22T11:57:47.855Z,95587.69
2018-09-22T12:00:17.271Z,95590.32
2018-09-22T12:02:46.510Z,95588.47
2018-09-22T12:05:15.739Z,95580.84
2018-09-22T12:07:44.943Z,95592.48
2018-09-22T12:10:14.178Z,95582.12
2018-09-22T12:12:43.425Z,95568.94
2018-09-22T12:15:12.626Z,95573.92
2018-09-22T12:17:41.858Z,95570.31
2018-09-22T12:20:11.091Z,95575.28
2018-09-22T12:22:40.304Z,95579.45
2018-09-22T12:25:09.518Z,95575.94
2018-09-22T12:27:39.995Z,95561.17
2018-09-22T12:30:09.307Z,95561.29
2018-09-22T12:32:38.539Z,95553.01
2018-09-22T12:35:07.758Z,95533.82
2018-09-22T12:37:36.969Z,95538.48
2018-09-22T12:40:06.302Z,95539.89
2018-09-22T12:42:35.555Z,95544.45
2018-09-22T12:45:04.806Z,95532.22
2018-09-22T12:47:34.030Z,95527.66
2018-09-22T12:50:03.274Z,95527.97
2018-09-22T12:52:32.486Z,95525.89
2018-09-22T12:55:01.743Z,95516.16
2018-09-22T12:57:31.075Z,95519.59
2018-09-22T13:00:00.308Z,95512.63
2018-09-22T13:02:29.568Z,95501.13
2018-09-22T13:04:58.924Z,95492.16
2018-09-22T13:07:28.174Z,95491.92
2018-09-22T13:09:57.454Z,95487.75
2018-09-22T13:12:26.752Z,95486.69
2018-09-22T13:14:55.999Z,95490.69
2018-09-22T13:17:25.258Z,95490.81
2018-09-22T13:19:54.505Z,95491.51
2018-09-22T13:22:23.808Z,95496.05
2018-09-22T13:24:53.107Z,95491.85
2018-09-22T13:27:22.354Z,95490.23
2018-09-22T13:29:51.598Z,95484.77
2018-09-22T13:32:20.990Z,95480.63
2018-09-22T13:34:50.236Z,95483.86
2018-09-22T13:37:19.586Z,95473.45
2018-09-22T13:39:48.710Z,95472.01
2018-09-22T13:42:17.936Z,95479.39
2018-09-22T13:44:47.184Z,95481.21
2018-09-22T13:47:16.420Z,95475.23
2018-09-22T13:49:45.633Z,95482.41
2018-09-22T13:52:14.958Z,95492.41
2018-09-22T13:54:44.230Z,95489.39
2018-09-22T13:57:13.470Z,95495.48
2018-09-22T13:59:42.707Z,95486.76
2018-09-22T14:02:11.949Z,95471.17
2018-09-22T14:04:41.242Z,95471.96
2018-09-22T14:07:10.483Z,95474.11
2018-09-22T14:09:39.779Z,95460.31
2018-09-22T14:12:08.998Z,95455.96
2018-09-22T14:14:38.238Z,95464.05
2018-09-22T14:17:07.496Z,95458.78
2018-09-22T14:19:36.722Z,95450.52
2018-09-22T14:22:05.984Z,95457.80
2018-09-22T14:24:35.202Z,95452.80
2018-09-22T14:27:04.482Z,95439.95
2018-09-22T14:29:33.692Z,95428.39
2018-09-22T14:32:03.118Z,95424.01
2018-09-22T14:34:32.362Z,95421.34
2018-09-22T14:37:01.579Z,95411.02
2018-09-22T14:39:30.807Z,95404.89
2018-09-22T14:42:00.027Z,95401.02
2018-09-22T14:44:29.258Z,95403.77
2018-09-22T14:46:58.482Z,95397.27
2018-09-22T14:49:27.691Z,95396.67
2018-09-22T14:51:56.935Z,95391.64
2018-09-22T14:54:26.163Z,95393.22
2018-09-22T14:56:55.409Z,95394.53
2018-09-22T14:59:24.627Z,95387.50
2018-09-22T15:01:53.884Z,95391.89
2018-09-22T15:04:23.112Z,95400.30
2018-09-22T15:06:52.547Z,95394.67
2018-09-22T15:09:21.789Z,95388.85
2018-09-22T15:11:51.006Z,95393.70
2018-09-22T15:14:20.274Z,95386.38
2018-09-22T15:16:49.502Z,95390.64
2018-09-22T15:19:18.755Z,95387.94
2018-09-22T15:21:47.975Z,95389.65
2018-09-22T15:24:17.199Z,95401.59
2018-09-22T15:26:46.412Z,95406.40
2018-09-22T15:29:15.774Z,95395.18
2018-09-22T15:31:44.992Z,95405.77
2018-09-22T15:34:14.225Z,95410.81
2018-09-22T15:36:44.700Z,95421.02
2018-09-22T15:39:13.908Z,95423.45
2018-09-22T15:41:43.147Z,95425.74
2018-09-22T15:44:12.418Z,95428.90
2018-09-22T15:46:41.651Z,95428.97
2018-09-22T15:49:10.904Z,95416.69
2018-09-22T15:51:40.155Z,95403.25
2018-09-22T15:54:09.383Z,95404.65
2018-09-22T15:56:38.634Z,95401.66
2018-09-22T15:59:07.856Z,95389.02
2018-09-22T16:01:37.087Z,95391.39
2018-09-22T16:04:06.323Z,95389.20
2018-09-22T16:06:35.539Z,95385.31
2018-09-22T16:09:06.644Z,95376.27
2018-09-22T16:11:35.823Z,95378.66
2018-09-22T16:14:05.058Z,95376.14
2018-09-22T16:16:34.278Z,95379.30
2018-09-22T16:19:03.586Z,95386.25
2018-09-22T16:21:32.920Z,95374.51
2018-09-22T16:24:02.158Z,95361.70
2018-09-22T16:26:31.415Z,95358.61
2018-09-22T16:29:01.386Z,95360.84
2018-09-22T16:31:30.606Z,95362.80
2018-09-22T16:33:59.842Z,95371.45
2018-09-22T16:36:29.090Z,95368.52
2018-09-22T16:38:58.303Z,95363.41
2018-09-22T16:41:27.518Z,95365.09
2018-09-22T16:43:56.764Z,95361.51
2018-09-22T16:46:26.002Z,95365.14
2018-09-22T16:48:55.270Z,95371.62
2018-09-22T16:51:24.480Z,95364.50
2018-09-22T16:53:53.714Z,95369.40
2018-09-22T16:56:23.324Z,95364.89
2018-09-22T16:58:52.575Z,95364.39
2018-09-22T17:01:21.799Z,95370.85
2018-09-22T17:03:51.030Z,95363.80
2018-09-22T17:06:20.343Z,95365.20
2018-09-22T17:08:49.558Z,95362.52
2018-09-22T17:11:18.790Z,95360.45
2018-09-22T17:13:48.040Z,95361.98
2018-09-22T17:16:17.370Z,95356.94
2018-09-22T17:18:46.610Z,95347.23
2018-09-22T17:21:16.055Z,95342.89
2018-09-22T17:23:45.304Z,95351.92
2018-09-22T17:26:14.515Z,95357.42
2018-09-22T17:28:43.766Z,95358.44
2018-09-22T17:31:12.962Z,95354.78
2018-09-22T17:33:42.213Z,95351.75
2018-09-22T17:36:11.443Z,95354.98
2018-09-22T17:38:40.661Z,95348.13
2018-09-22T17:41:09.906Z,95352.31
2018-09-22T17:43:39.158Z,95366.93
2018-09-22T17:46:08.402Z,95364.57
2018-09-22T17:48:37.630Z,95357.13
2018-09-22T17:51:08.308Z,95360.05
2018-09-22T17:53:37.540Z,95353.77
2018-09-22T17:56:06.824Z,95360.22
2018-09-22T17:58:36.102Z,95355.05
2018-09-22T18:01:05.370Z,95360.06
2018-09-22T18:03:34.590Z,95365.08
2018-09-22T18:06:03.845Z,95368.08
2018-09-22T18:08:33.071Z,95379.28
2018-09-22T18:11:02.296Z,95376.24
2018-09-22T18:13:31.555Z,95390.73
2018-09-22T18:16:00.784Z,95394.61
2018-09-22T18:18:30.050Z,95389.84
2018-09-22T18:20:59.258Z,95397.47
2018-09-22T18:23:28.482Z,95394.78
2018-09-22T18:25:57.714Z,95403.64
2018-09-22T18:28:26.988Z,95414.26
2018-09-22T18:30:56.203Z,95413.51
2018-09-22T18:33:25.434Z,95416.21
2018-09-22T18:35:54.674Z,95425.03
2018-09-22T18:38:23.921Z,95422.41
2018-09-22T18:40:53.155Z,95428.80
2018-09-22T18:43:22.396Z,95440.05
2018-09-22T18:45:51.681Z,95449.63
2018-09-22T18:48:20.911Z,95439.23
2018-09-22T18:50:50.170Z,95440.77
2018-09-22T18:53:19.412Z,95443.91
2018-09-22T18:55:48.673Z,95436.27
2018-09-22T18:58:17.894Z,95432.75
2018-09-22T19:00:47.122Z,95439.97
2018-09-22T19:03:16.342Z,95441.06
2018-09-22T19:05:45.560Z,95442.87
2018-09-22T19:08:14.816Z,95449.63
2018-09-22T19:10:44.031Z,95439.88
2018-09-22T19:13:15.911Z,95424.82
2018-09-22T19:15:48.309Z,95427.81
2018-09-22T19:18:21.624Z,95427.03
2018-09-22T19:20:56.202Z,95422.68
2018-09-22T19:23:28.871Z,95435.37
2018-09-22T19:26:01.906Z,95429.90
2018-09-22T19:28:34.615Z,95425.71
2018-09-22T19:31:07.171Z,95434.78
2018-09-22T19:33:39.126Z,95432.11
2018-09-22T19:36:13.896Z,95416.14
2018-09-22T19:39:04.735Z,95423.73
2018-09-22T19:43:40.059Z,95431.30
2018-09-22T19:46:19.219Z,95427.39
2018-09-22T19:48:55.143Z,95424.43
2018-09-22T19:51:26.035Z,95419.61
2018-09-22T19:53:56.310Z,95421.38
2018-09-22T19:56:25.621Z,95420.26
2018-09-22T19:58:54.974Z,95428.30
2018-09-22T20:01:24.191Z,95425.22
2018-09-22T20:03:53.407Z,95422.05
2018-09-22T20:06:22.663Z,95422.05
2018-09-22T20:08:51.906Z,95422.39
2018-09-22T20:11:21.339Z,95423.81
2018-09-22T20:13:50.554Z,95435.41
2018-09-22T20:16:19.783Z,95420.60
2018-09-22T20:18:49.000Z,95428.26
2018-09-22T20:21:18.254Z,95437.23
2018-09-22T20:23:47.534Z,95421.00
2018-09-22T20:26:16.748Z,95419.25
2018-09-22T20:28:46.979Z,95422.38
2018-09-22T20:31:16.206Z,95414.59
2018-09-22T20:33:45.433Z,95410.63
2018-09-22T20:36:14.722Z,95418.73
2018-09-22T20:38:43.934Z,95422.24
2018-09-22T20:41:13.176Z,95411.53
2018-09-22T20:43:42.390Z,95407.13
2018-09-22T20:46:11.602Z,95399.73
2018-09-22T20:48:40.823Z,95406.33
2018-09-22T20:51:10.075Z,95402.56
2018-09-22T20:53:39.357Z,95393.81
2018-09-22T20:56:08.587Z,95383.52
2018-09-22T20:58:37.835Z,95401.54
2018-09-22T21:01:07.298Z,95411.45
2018-09-22T21:06:36.047Z,95394.27
2018-09-22T21:09:07.242Z,95383.18
2018-09-22T21:11:36.403Z,95401.11
2018-09-22T21:14:05.842Z,95413.27
2018-09-22T21:16:35.079Z,95410.40
2018-09-22T21:19:04.392Z,95408.14
2018-09-22T21:21:33.610Z,95407.98
2018-09-22T21:24:02.840Z,95401.80
2018-09-22T21:26:32.099Z,95409.41
2018-09-22T21:29:01.307Z,95416.91
2018-09-22T21:31:30.534Z,95414.82
2018-09-22T21:33:59.763Z,95408.66
2018-09-22T21:36:29.002Z,95407.20
2018-09-22T21:38:58.211Z,95407.59
2018-09-22T21:41:27.450Z,95409.27
2018-09-22T21:43:56.683Z,95411.45
2018-09-22T21:46:25.935Z,95401.41
2018-09-22T21:48:55.176Z,95389.87
2018-09-22T21:51:24.374Z,95394.97
2018-09-22T21:53:53.595Z,95403.36
2018-09-22T21:56:22.826Z,95414.52
2018-09-22T21:58:52.054Z,95406.14
2018-09-22T22:01:26.396Z,95404.05
2018-09-22T22:03:55.614Z,95414.41
2018-09-22T22:06:24.842Z,95419.00
2018-09-22T22:08:54.271Z,95417.98
2018-09-22T22:11:23.512Z,95428.70
2018-09-22T22:13:52.722Z,95426.74
2018-09-22T22:16:21.963Z,95423.20
2018-09-22T22:18:51.215Z,95425.04
2018-09-22T22:21:20.452Z,95434.11
2018-09-22T22:23:49.664Z,95435.58
2018-09-22T22:26:18.922Z,95446.13
2018-09-22T22:28:48.135Z,95446.62
2018-09-22T22:31:17.403Z,95434.75
2018-09-22T22:33:49.678Z,95427.25
2018-09-22T22:36:19.326Z,95424.01
2018-09-22T22:38:48.599Z,95428.95
2018-09-22T22:41:17.869Z,95421.78
2018-09-22T22:43:47.095Z,95429.23
2018-09-22T22:46:16.330Z,95436.34
2018-09-22T22:48:45.583Z,95440.89
2018-09-22T22:51:14.816Z,95429.97
2018-09-22T22:53:44.025Z,95434.55
2018-09-22T22:56:13.262Z,95441.33
2018-09-22T22:58:42.655Z,95428.84
2018-09-22T23:01:11.862Z,95425.05
2018-09-22T23:03:41.087Z,95433.91
2018-09-22T23:06:10.339Z,95428.99
2018-09-22T23:08:39.570Z,95429.67
2018-09-22T23:11:10.047Z,95427.05
2018-09-22T23:13:39.282Z,95418.66
2018-09-22T23:16:08.579Z,95412.13
2018-09-22T23:18:37.810Z,95416.52
2018-09-22T23:21:07.150Z,95414.86
2018-09-22T23:23:36.345Z,95423.09
2018-09-22T23:26:05.575Z,95427.37
2018-09-22T23:28:34.842Z,95428.66
2018-09-22T23:31:04.055Z,95428.80
2018-09-22T23:33:33.284Z,95424.42
2018-09-22T23:36:02.534Z,95426.37
2018-09-22T23:38:31.885Z,95432.45
2018-09-22T23:41:01.131Z,95436.70
2018-09-22T23:43:30.349Z,95450.49
2018-09-22T23:45:59.563Z,95449.84
2018-09-22T23:48:28.779Z,95451.81
2018-09-22T23:50:57.998Z,95445.52
2018-09-22T23:53:27.221Z,95442.34
2018-09-22T23:55:56.461Z,95445.31
2018-09-22T23:58:25.710Z,95445.03
